createdAt,value
2023-06-21T00:00:17.692Z,16.35
2023-06-21T00:02:44.661Z,16.45
2023-06-21T00:05:12.229Z,16.30
2023-06-21T00:07:43.021Z,15.77
2023-06-21T00:10:09.986Z,15.50
2023-06-21T00:12:36.953Z,17.15
2023-06-21T00:15:04.525Z,15.63
2023-06-21T00:17:31.317Z,16.80
2023-06-21T00:19:58.225Z,16.60
2023-06-21T00:22:24.957Z,15.85
2023-06-21T00:24:53.132Z,15.07
2023-06-21T00:27:19.760Z,15.93
2023-06-21T00:29:46.385Z,16.25
2023-06-21T00:32:13.068Z,16.38
2023-06-21T00:34:39.753Z,16.77
2023-06-21T00:37:06.806Z,17.20
2023-06-21T00:39:33.468Z,16.98
2023-06-21T00:42:00.938Z,16.00
2023-06-21T00:44:27.784Z,15.48
2023-06-21T00:46:54.468Z,16.45
2023-06-21T00:49:21.116Z,15.80
2023-06-21T00:51:48.697Z,16.55
2023-06-21T00:54:18.692Z,16.20
2023-06-21T00:56:46.697Z,16.10
2023-06-21T00:59:13.637Z,16.90
2023-06-21T01:01:40.389Z,16.65
2023-06-21T01:04:09.422Z,16.95
2023-06-21T01:06:52.666Z,15.60
2023-06-21T01:09:26.613Z,16.20
2023-06-21T01:11:59.388Z,16.75
2023-06-21T01:14:46.253Z,16.35
2023-06-21T01:17:14.356Z,17.20
2023-06-21T01:19:54.386Z,15.95
2023-06-21T01:22:23.862Z,15.88
2023-06-21T01:25:05.946Z,17.48
2023-06-21T01:27:54.881Z,16.92
2023-06-21T01:30:23.151Z,16.45
2023-06-21T01:32:54.845Z,16.77
2023-06-21T01:35:22.692Z,16.67
2023-06-21T01:37:52.872Z,15.57
2023-06-21T01:40:21.107Z,16.38
2023-06-21T01:42:47.828Z,16.90
2023-06-21T01:45:14.906Z,17.13
2023-06-21T01:47:44.334Z,17.30
2023-06-21T01:50:13.620Z,16.17
2023-06-21T01:52:41.400Z,16.85
2023-06-21T01:55:09.587Z,16.50
2023-06-21T01:57:36.720Z,16.35
2023-06-21T02:00:17.487Z,16.48
2023-06-21T02:02:52.996Z,15.95
2023-06-21T02:05:21.149Z,17.02
2023-06-21T02:07:49.137Z,17.50
2023-06-21T02:10:17.399Z,16.70
2023-06-21T02:12:48.728Z,17.48
2023-06-21T02:15:17.273Z,17.48
2023-06-21T02:17:52.858Z,16.63
2023-06-21T02:20:21.161Z,18.38
2023-06-21T02:22:48.237Z,16.63
2023-06-21T02:25:16.157Z,17.13
2023-06-21T02:27:43.210Z,17.65
2023-06-21T02:30:10.348Z,17.58
2023-06-21T02:32:36.990Z,16.73
2023-06-21T02:35:04.108Z,17.40
2023-06-21T02:37:30.807Z,17.33
2023-06-21T02:39:57.793Z,16.95
2023-06-21T02:42:27.976Z,16.83
2023-06-21T02:44:54.620Z,17.17
2023-06-21T02:47:21.348Z,17.23
2023-06-21T02:49:48.101Z,16.88
2023-06-21T02:52:15.649Z,16.80
2023-06-21T02:54:42.290Z,17.45
2023-06-21T02:57:09.617Z,16.88
2023-06-21T02:59:37.158Z,17.05
2023-06-21T03:02:04.090Z,16.75
2023-06-21T03:04:31.270Z,17.98
2023-06-21T03:06:58.234Z,18.15
2023-06-21T03:09:24.863Z,18.58
2023-06-21T03:11:51.479Z,18.15
2023-06-21T03:14:18.460Z,16.88
2023-06-21T03:16:46.376Z,17.17
2023-06-21T03:19:13.526Z,17.90
2023-06-21T03:21:40.129Z,16.73
2023-06-21T03:24:08.110Z,15.98
2023-06-21T03:26:36.478Z,17.83
2023-06-21T03:29:07.985Z,16.17
2023-06-21T03:31:35.743Z,16.48
2023-06-21T03:34:02.532Z,17.35
2023-06-21T03:36:29.796Z,16.60
2023-06-21T03:38:56.531Z,16.88
2023-06-21T03:41:23.324Z,16.83
2023-06-21T03:43:50.002Z,18.98
2023-06-21T03:46:17.198Z,17.27
2023-06-21T03:48:44.032Z,17.63
2023-06-21T03:51:10.656Z,17.92
2023-06-21T03:53:37.274Z,17.23
2023-06-21T03:56:05.235Z,17.48
2023-06-21T03:58:31.854Z,17.23
2023-06-21T04:00:58.457Z,17.23
2023-06-21T04:03:25.131Z,16.85
2023-06-21T04:05:51.899Z,17.15
2023-06-21T04:08:18.530Z,16.98
2023-06-21T04:10:45.203Z,16.98
2023-06-21T04:13:11.869Z,17.40
2023-06-21T04:15:38.532Z,17.30
2023-06-21T04:18:05.245Z,16.85
2023-06-21T04:20:32.069Z,17.58
2023-06-21T04:22:58.933Z,16.85
2023-06-21T04:25:25.669Z,17.15
2023-06-21T04:27:52.312Z,16.08
2023-06-21T04:30:18.991Z,16.73
2023-06-21T04:32:46.997Z,16.73
2023-06-21T04:35:17.853Z,16.90
2023-06-21T04:37:48.575Z,16.80
2023-06-21T04:40:18.040Z,16.25
2023-06-21T04:42:55.798Z,16.40
2023-06-21T04:45:23.745Z,16.65
2023-06-21T04:47:50.442Z,16.55
2023-06-21T04:52:50.190Z,15.60
2023-06-21T04:55:20.392Z,15.70
2023-06-21T04:57:48.852Z,17.08
2023-06-21T05:00:16.362Z,16.48
2023-06-21T05:02:43.428Z,17.30
2023-06-21T05:05:10.372Z,16.02
2023-06-21T05:07:39.142Z,16.02
2023-06-21T05:10:10.289Z,15.68
2023-06-21T05:12:37.234Z,16.98
2023-06-21T05:15:04.978Z,16.67
2023-06-21T05:17:31.632Z,16.05
2023-06-21T05:19:58.340Z,16.70
2023-06-21T05:22:24.976Z,15.75
2023-06-21T05:24:51.594Z,16.05
2023-06-21T05:27:18.205Z,16.33
2023-06-21T05:29:44.820Z,15.80
2023-06-21T05:32:11.683Z,15.50
2023-06-21T05:34:38.315Z,16.92
2023-06-21T05:37:05.215Z,17.05
2023-06-21T05:39:31.888Z,16.45
2023-06-21T05:41:58.466Z,16.30
2023-06-21T05:44:25.091Z,15.98
2023-06-21T05:46:51.728Z,15.00
2023-06-21T05:49:19.455Z,16.63
2023-06-21T05:51:46.152Z,16.20
2023-06-21T05:54:15.335Z,15.43
2023-06-21T05:56:42.532Z,15.95
2023-06-21T05:59:09.551Z,15.93
2023-06-21T06:01:36.573Z,16.05
2023-06-21T06:04:03.317Z,14.65
2023-06-21T06:06:38.392Z,15.50
2023-06-21T06:09:05.659Z,15.88
2023-06-21T06:11:32.393Z,15.70
2023-06-21T06:13:59.216Z,15.13
2023-06-21T06:16:25.974Z,15.70
2023-06-21T06:18:52.859Z,16.33
2023-06-21T06:21:22.768Z,15.30
2023-06-21T06:23:51.405Z,14.52
2023-06-21T06:26:27.065Z,15.48
2023-06-21T06:28:55.146Z,15.10
2023-06-21T06:31:24.907Z,15.27
2023-06-21T06:33:51.927Z,14.88
2023-06-21T06:36:19.070Z,15.00
2023-06-21T06:38:50.015Z,15.50
2023-06-21T06:41:18.552Z,15.35
2023-06-21T06:43:45.940Z,14.98
2023-06-21T06:46:12.760Z,14.32
2023-06-21T06:48:39.420Z,15.40
2023-06-21T06:51:06.138Z,15.80
2023-06-21T06:53:32.830Z,14.98
2023-06-21T06:56:00.959Z,14.80
2023-06-21T06:58:31.540Z,13.98
2023-06-21T07:00:58.276Z,14.70
2023-06-21T07:03:25.026Z,13.52
2023-06-21T07:05:51.817Z,13.50
2023-06-21T07:08:18.710Z,13.15
2023-06-21T07:10:45.695Z,13.32
2023-06-21T07:13:12.486Z,12.15
2023-06-21T07:15:39.151Z,13.43
2023-06-21T07:18:06.190Z,13.05
2023-06-21T07:20:33.692Z,13.30
2023-06-21T07:23:00.870Z,12.98
2023-06-21T07:25:27.821Z,13.15
2023-06-21T07:27:54.844Z,13.10
2023-06-21T07:30:21.749Z,13.18
2023-06-21T07:32:49.026Z,13.98
2023-06-21T07:35:17.498Z,13.85
2023-06-21T07:37:45.160Z,14.20
2023-06-21T07:40:13.109Z,13.40
2023-06-21T07:42:41.200Z,13.68
2023-06-21T07:45:08.817Z,13.30
2023-06-21T07:47:35.821Z,14.00
2023-06-21T07:50:17.107Z,13.10
2023-06-21T07:52:48.420Z,13.23
2023-06-21T07:55:15.208Z,13.52
2023-06-21T07:57:42.242Z,13.68
2023-06-21T08:00:13.057Z,12.68
2023-06-21T08:02:42.205Z,13.90
2023-06-21T08:05:09.488Z,14.57
2023-06-21T08:07:36.207Z,13.95
2023-06-21T08:10:03.313Z,13.20
2023-06-21T08:12:29.978Z,13.10
2023-06-21T08:14:56.651Z,11.60
2023-06-21T08:17:23.350Z,11.75
2023-06-21T08:19:50.055Z,11.70
2023-06-21T08:22:16.703Z,11.52
2023-06-21T08:24:43.365Z,12.40
2023-06-21T08:27:10.354Z,12.40
2023-06-21T08:29:37.068Z,12.02
2023-06-21T08:32:06.220Z,12.00
2023-06-21T08:34:33.615Z,10.52
2023-06-21T08:37:00.247Z,10.30
2023-06-21T08:39:28.563Z,11.52
2023-06-21T08:41:56.572Z,10.20
2023-06-21T08:44:23.421Z,10.35
2023-06-21T08:46:53.059Z,10.40
2023-06-21T08:49:22.119Z,11.98
2023-06-21T08:51:49.839Z,10.95
2023-06-21T08:54:20.169Z,11.20
2023-06-21T08:56:51.402Z,10.63
2023-06-21T08:59:24.382Z,10.63
2023-06-21T09:02:33.060Z,10.40
2023-06-21T09:05:10.198Z,9.60
2023-06-21T09:07:38.060Z,9.20
2023-06-21T09:10:05.999Z,9.70
2023-06-21T09:12:35.920Z,10.23
2023-06-21T09:15:03.760Z,10.15
2023-06-21T09:17:31.464Z,11.15
2023-06-21T09:19:58.351Z,10.25
2023-06-21T09:22:27.917Z,10.00
2023-06-21T09:24:54.630Z,9.63
2023-06-21T09:27:21.286Z,9.63
2023-06-21T09:29:48.064Z,9.55
2023-06-21T09:32:14.722Z,9.63
2023-06-21T09:34:41.366Z,10.70
2023-06-21T09:37:08.028Z,10.70
2023-06-21T09:39:34.660Z,10.57
2023-06-21T09:42:01.381Z,11.35
2023-06-21T09:44:27.964Z,10.77
2023-06-21T09:47:00.434Z,11.55
2023-06-21T09:49:29.101Z,10.95
2023-06-21T09:51:56.959Z,11.18
2023-06-21T09:54:23.611Z,11.75
2023-06-21T09:56:50.702Z,12.07
2023-06-21T09:59:19.623Z,11.48
2023-06-21T10:01:47.751Z,11.20
2023-06-21T10:04:16.165Z,11.15
2023-06-21T10:06:50.532Z,10.95
2023-06-21T10:11:49.824Z,10.73
2023-06-21T10:14:23.812Z,11.30
2023-06-21T10:16:52.340Z,10.93
2023-06-21T10:19:24.863Z,10.75
2023-06-21T10:22:07.679Z,10.88
2023-06-21T10:24:48.697Z,10.88
2023-06-21T10:27:16.287Z,10.93
2023-06-21T10:29:44.720Z,11.15
2023-06-21T10:32:12.886Z,11.73
2023-06-21T10:34:58.165Z,10.13
2023-06-21T10:37:56.557Z,11.32
2023-06-21T10:40:23.556Z,11.13
2023-06-21T10:42:51.455Z,10.73
2023-06-21T10:45:18.623Z,10.70
2023-06-21T10:47:48.441Z,10.07
2023-06-21T10:50:17.359Z,11.30
2023-06-21T10:52:45.124Z,10.68
2023-06-21T10:55:14.424Z,11.27
2023-06-21T10:57:41.816Z,11.80
2023-06-21T11:00:09.365Z,10.70
2023-06-21T11:02:36.536Z,11.00
2023-06-21T11:05:18.783Z,11.98
2023-06-21T11:07:58.538Z,11.38
2023-06-21T11:10:50.879Z,11.13
2023-06-21T11:13:33.694Z,10.93
2023-06-21T11:16:11.369Z,10.60
2023-06-21T11:18:38.155Z,11.18
2023-06-21T11:21:07.990Z,11.23
2023-06-21T11:23:55.904Z,10.70
2023-06-21T11:26:23.611Z,10.90
2023-06-21T11:28:51.027Z,9.98
2023-06-21T11:31:24.127Z,10.13
2023-06-21T11:33:54.597Z,10.48
2023-06-21T11:36:31.102Z,10.98
2023-06-21T11:39:06.914Z,10.43
2023-06-21T11:41:41.422Z,10.40
2023-06-21T11:44:15.644Z,10.70
2023-06-21T11:46:43.986Z,11.45
2023-06-21T11:49:10.620Z,11.73
2023-06-21T11:51:50.204Z,12.07
2023-06-21T11:54:49.397Z,11.80
2023-06-21T11:57:16.066Z,12.07
2023-06-21T11:59:44.646Z,10.98
2023-06-21T12:02:14.913Z,10.75
2023-06-21T12:04:43.147Z,11.48
2023-06-21T12:07:11.210Z,10.95
2023-06-21T12:09:48.752Z,10.48
2023-06-21T12:12:17.930Z,10.88
2023-06-21T12:14:44.780Z,10.43
2023-06-21T12:17:17.167Z,10.55
2023-06-21T12:19:43.785Z,10.95
2023-06-21T12:22:13.744Z,11.93
2023-06-21T12:24:40.505Z,10.55
2023-06-21T12:27:07.250Z,11.15
2023-06-21T12:29:33.931Z,10.75
2023-06-21T12:32:00.640Z,11.80
2023-06-21T12:34:27.405Z,10.60
2023-06-21T12:36:56.342Z,11.45
2023-06-21T12:39:24.209Z,11.32
2023-06-21T12:41:51.137Z,10.90
2023-06-21T12:44:20.830Z,10.85
2023-06-21T12:46:47.874Z,10.65
2023-06-21T12:49:15.956Z,10.43
2023-06-21T12:51:45.825Z,10.43
2023-06-21T12:54:21.361Z,10.55
2023-06-21T12:56:59.940Z,10.45
2023-06-21T12:59:28.073Z,10.35
2023-06-21T13:01:57.265Z,9.32
2023-06-21T13:04:24.196Z,10.90
2023-06-21T13:06:51.257Z,10.40
2023-06-21T13:09:18.071Z,10.23
2023-06-21T13:11:45.854Z,10.48
2023-06-21T13:14:12.555Z,10.75
2023-06-21T13:16:39.165Z,10.27
2023-06-21T13:19:08.066Z,10.25
2023-06-21T13:21:34.984Z,10.05
2023-06-21T13:24:02.524Z,9.65
2023-06-21T13:26:30.203Z,9.93
2023-06-21T13:28:56.965Z,9.63
2023-06-21T13:31:24.986Z,9.40
2023-06-21T13:33:52.926Z,9.43
2023-06-21T13:36:19.561Z,9.30
2023-06-21T13:38:46.296Z,9.05
2023-06-21T13:41:13.001Z,10.05
2023-06-21T13:43:39.687Z,10.43
2023-06-21T13:46:06.385Z,9.27
2023-06-21T13:48:33.131Z,10.15
2023-06-21T13:51:00.003Z,9.98
2023-06-21T13:53:28.272Z,10.52
2023-06-21T13:55:55.098Z,9.73
2023-06-21T13:58:23.387Z,9.95
2023-06-21T14:00:50.424Z,9.70
2023-06-21T14:03:17.255Z,10.55
2023-06-21T14:05:44.006Z,10.88
2023-06-21T14:08:10.602Z,10.25
2023-06-21T14:10:38.303Z,10.23
2023-06-21T14:13:04.902Z,9.43
2023-06-21T14:15:31.564Z,10.45
2023-06-21T14:18:03.754Z,10.35
2023-06-21T14:20:31.402Z,10.35
2023-06-21T14:22:58.498Z,11.02
2023-06-21T14:25:25.128Z,10.77
2023-06-21T14:27:51.823Z,10.35
2023-06-21T14:30:21.359Z,9.80
2023-06-21T14:32:48.742Z,10.57
2023-06-21T14:35:15.723Z,10.32
2023-06-21T14:37:45.088Z,10.73
2023-06-21T14:40:12.023Z,10.57
2023-06-21T14:42:38.668Z,10.68
2023-06-21T14:45:05.985Z,10.07
2023-06-21T14:47:32.920Z,11.07
2023-06-21T14:49:59.558Z,10.75
2023-06-21T14:52:26.254Z,9.75
2023-06-21T14:54:53.459Z,11.02
2023-06-21T14:57:20.323Z,10.25
2023-06-21T14:59:46.980Z,9.32
2023-06-21T15:02:14.071Z,11.00
2023-06-21T15:04:41.422Z,10.52
2023-06-21T15:07:08.896Z,10.50
2023-06-21T15:09:35.640Z,10.75
2023-06-21T15:12:02.362Z,10.02
2023-06-21T15:14:29.000Z,9.80
2023-06-21T15:16:57.453Z,10.63
2023-06-21T15:19:25.925Z,11.80
2023-06-21T15:21:52.954Z,10.35
2023-06-21T15:24:19.989Z,10.13
2023-06-21T15:26:46.926Z,10.63
2023-06-21T15:29:13.594Z,11.23
2023-06-21T15:31:42.480Z,10.70
2023-06-21T15:34:13.923Z,10.43
2023-06-21T15:36:42.454Z,11.68
2023-06-21T15:39:10.011Z,11.45
2023-06-21T15:41:37.757Z,11.32
2023-06-21T15:44:06.027Z,11.38
2023-06-21T15:46:32.868Z,10.75
2023-06-21T15:48:59.549Z,10.88
2023-06-21T15:51:26.392Z,11.02
2023-06-21T15:53:58.169Z,11.75
2023-06-21T15:56:26.233Z,10.95
2023-06-21T15:58:53.407Z,11.73
2023-06-21T16:01:21.418Z,11.27
2023-06-21T16:03:49.525Z,11.43
2023-06-21T16:06:17.350Z,12.95
2023-06-21T16:08:44.696Z,11.80
2023-06-21T16:11:12.754Z,12.20
2023-06-21T16:13:46.662Z,12.85
2023-06-21T16:16:14.437Z,11.55
2023-06-21T16:18:41.191Z,12.57
2023-06-21T16:21:07.927Z,11.68
2023-06-21T16:23:34.659Z,11.77
2023-06-21T16:26:01.902Z,12.00
2023-06-21T16:28:28.661Z,12.10
2023-06-21T16:30:55.451Z,11.95
2023-06-21T16:33:22.181Z,12.52
2023-06-21T16:35:49.401Z,11.90
2023-06-21T16:38:16.212Z,11.55
2023-06-21T16:40:43.036Z,11.65
2023-06-21T16:43:11.331Z,11.95
2023-06-21T16:45:38.672Z,12.43
2023-06-21T16:48:05.877Z,13.50
2023-06-21T16:50:33.068Z,12.45
2023-06-21T16:52:59.948Z,13.27
2023-06-21T16:55:26.949Z,13.80
2023-06-21T16:57:53.774Z,13.15
2023-06-21T17:00:20.660Z,13.77
2023-06-21T17:02:47.507Z,13.82
2023-06-21T17:05:14.308Z,12.73
2023-06-21T17:07:41.916Z,12.48
2023-06-21T17:10:09.038Z,12.50
2023-06-21T17:12:36.604Z,12.52
2023-06-21T17:15:03.626Z,12.25
2023-06-21T17:17:30.397Z,11.68
2023-06-21T17:19:57.071Z,11.95
2023-06-21T17:22:23.735Z,10.60
2023-06-21T17:24:52.310Z,11.73
2023-06-21T17:27:19.602Z,10.15
2023-06-21T17:29:47.915Z,10.88
2023-06-21T17:32:15.105Z,11.82
2023-06-21T17:34:43.854Z,11.93
2023-06-21T17:37:11.055Z,12.35
2023-06-21T17:39:38.242Z,11.07
2023-06-21T17:42:06.368Z,10.80
2023-06-21T17:44:33.024Z,10.73
2023-06-21T17:46:59.899Z,10.85
2023-06-21T17:49:26.553Z,10.60
2023-06-21T17:51:53.386Z,11.60
2023-06-21T17:54:23.249Z,11.73
2023-06-21T17:56:50.183Z,10.98
2023-06-21T17:59:16.824Z,11.50
2023-06-21T18:01:43.514Z,11.20
2023-06-21T18:04:10.257Z,10.75
2023-06-21T18:06:36.996Z,11.65
2023-06-21T18:09:03.797Z,11.38
2023-06-21T18:11:30.625Z,10.82
2023-06-21T18:13:57.383Z,10.85
2023-06-21T18:16:24.195Z,10.32
2023-06-21T18:18:50.877Z,10.73
2023-06-21T18:21:17.694Z,11.45
2023-06-21T18:23:44.287Z,11.73
2023-06-21T18:26:12.891Z,11.30
2023-06-21T18:28:39.762Z,11.05
2023-06-21T18:31:06.499Z,11.63
2023-06-21T18:33:33.222Z,12.20
2023-06-21T18:35:59.885Z,11.60
2023-06-21T18:38:28.859Z,9.88
2023-06-21T18:40:55.960Z,11.02
2023-06-21T18:43:24.407Z,11.13
2023-06-21T18:45:51.093Z,11.68
2023-06-21T18:48:17.976Z,12.10
2023-06-21T18:50:44.653Z,11.73
2023-06-21T18:53:11.285Z,11.80
2023-06-21T18:55:37.916Z,10.65
2023-06-21T18:58:04.679Z,11.02
2023-06-21T19:00:31.318Z,10.30
2023-06-21T19:02:58.091Z,10.13
2023-06-21T19:05:24.922Z,11.27
2023-06-21T19:07:51.972Z,10.50
2023-06-21T19:10:18.601Z,11.07
2023-06-21T19:12:45.909Z,10.85
2023-06-21T19:15:12.654Z,11.65
2023-06-21T19:17:39.361Z,10.13
2023-06-21T19:20:06.934Z,11.00
2023-06-21T19:22:33.590Z,10.25
2023-06-21T19:25:01.128Z,10.68
2023-06-21T19:27:27.872Z,9.70
2023-06-21T19:29:54.660Z,9.20
2023-06-21T19:32:21.480Z,10.15
2023-06-21T19:34:49.471Z,8.38
2023-06-21T19:37:17.152Z,8.07
2023-06-21T19:39:47.259Z,7.88
2023-06-21T19:42:14.313Z,7.20
2023-06-21T19:44:41.926Z,7.30
2023-06-21T19:47:10.830Z,7.60
2023-06-21T19:49:38.703Z,7.53
2023-06-21T19:52:05.826Z,7.90
2023-06-21T19:54:32.452Z,6.15
2023-06-21T19:56:59.607Z,6.18
2023-06-21T19:59:26.307Z,7.45
2023-06-21T20:01:53.071Z,6.43
2023-06-21T20:04:19.769Z,6.55
2023-06-21T20:06:46.414Z,6.13
2023-06-21T20:09:13.094Z,6.78
2023-06-21T20:11:39.760Z,5.30
2023-06-21T20:14:06.551Z,5.90
2023-06-21T20:16:33.185Z,5.35
2023-06-21T20:18:59.835Z,5.20
2023-06-21T20:21:26.441Z,5.35
2023-06-21T20:23:53.099Z,5.43
2023-06-21T20:26:19.839Z,4.95
2023-06-21T20:28:46.455Z,5.35
2023-06-21T20:31:13.177Z,5.90
2023-06-21T20:33:39.802Z,6.15
2023-06-21T20:36:07.961Z,5.43
2023-06-21T20:38:36.960Z,5.80
2023-06-21T20:41:10.557Z,5.25
2023-06-21T20:43:40.615Z,5.60
2023-06-21T20:46:07.865Z,6.03
2023-06-21T20:48:34.706Z,5.82
2023-06-21T20:51:01.437Z,5.50
2023-06-21T20:53:30.741Z,6.50
2023-06-21T20:56:07.842Z,6.10
2023-06-21T20:58:34.712Z,5.63
2023-06-21T21:01:01.426Z,5.57
2023-06-21T21:03:28.430Z,6.22
2023-06-21T21:05:55.443Z,5.53
2023-06-21T21:08:22.310Z,5.32
2023-06-21T21:10:48.930Z,5.70
2023-06-21T21:13:22.358Z,6.10
2023-06-21T21:15:49.056Z,5.38
2023-06-21T21:18:15.667Z,6.03
2023-06-21T21:20:42.335Z,5.10
2023-06-21T21:23:09.084Z,4.88
2023-06-21T21:25:35.695Z,5.65
2023-06-21T21:28:02.369Z,5.00
2023-06-21T21:30:29.343Z,4.75
2023-06-21T21:32:58.530Z,5.80
2023-06-21T21:35:25.629Z,5.47
2023-06-21T21:37:52.269Z,4.80
2023-06-21T21:40:18.891Z,4.32
2023-06-21T21:42:45.510Z,5.30
2023-06-21T21:45:12.337Z,4.90
2023-06-21T21:47:39.042Z,5.28
2023-06-21T21:50:06.174Z,4.65
2023-06-21T21:52:32.770Z,4.65
2023-06-21T21:54:59.410Z,5.60
2023-06-21T21:57:26.117Z,5.28
2023-06-21T21:59:54.379Z,5.60
2023-06-21T22:02:21.117Z,5.03
2023-06-21T22:04:47.987Z,5.05
2023-06-21T22:07:14.781Z,5.40
2023-06-21T22:09:41.412Z,5.15
2023-06-21T22:12:08.450Z,4.38
2023-06-21T22:14:36.389Z,5.22
2023-06-21T22:17:07.268Z,4.38
2023-06-21T22:19:33.895Z,4.63
2023-06-21T22:22:03.126Z,5.28
2023-06-21T22:24:30.567Z,5.30
2023-06-21T22:26:57.273Z,6.10
2023-06-21T22:29:24.782Z,5.07
2023-06-21T22:31:51.477Z,4.97
2023-06-21T22:34:21.045Z,5.65
2023-06-21T22:36:47.735Z,5.60
2023-06-21T22:39:14.762Z,4.88
2023-06-21T22:41:42.071Z,6.57
2023-06-21T22:44:09.423Z,4.90
2023-06-21T22:46:36.752Z,5.22
2023-06-21T22:49:05.021Z,5.47
2023-06-21T22:51:34.279Z,6.00
2023-06-21T22:54:01.183Z,6.10
2023-06-21T22:56:27.839Z,6.18
2023-06-21T22:58:54.487Z,6.50
2023-06-21T23:01:21.503Z,7.55
2023-06-21T23:03:48.946Z,6.80
2023-06-21T23:06:18.265Z,6.95
2023-06-21T23:08:46.322Z,6.60
2023-06-21T23:11:16.085Z,6.50
2023-06-21T23:13:43.377Z,7.55
2023-06-21T23:16:10.790Z,7.10
2023-06-21T23:18:38.995Z,7.53
2023-06-21T23:21:07.475Z,7.70
2023-06-21T23:23:34.777Z,7.53
2023-06-21T23:26:01.540Z,6.97
2023-06-21T23:28:32.163Z,6.88
2023-06-21T23:30:59.976Z,8.27
2023-06-21T23:33:50.457Z,6.90
2023-06-21T23:36:17.184Z,8.30
2023-06-21T23:38:54.912Z,7.22
2023-06-21T23:41:23.278Z,7.93
2023-06-21T23:43:59.152Z,6.95
2023-06-21T23:46:30.505Z,7.28
2023-06-21T23:48:59.659Z,6.43
2023-06-21T23:51:28.196Z,5.90
2023-06-21T23:53:54.880Z,6.80
2023-06-21T23:56:24.746Z,6.63
2023-06-21T23:58:53.231Z,6.25
